createdAt,value
2019-03-03T00:03:16.580Z,6.70
2019-03-03T00:08:21.388Z,6.70
2019-03-03T00:13:26.152Z,6.70
2019-03-03T00:18:30.932Z,6.70
2019-03-03T00:23:46.301Z,6.70
2019-03-03T00:28:51.073Z,6.70
2019-03-03T00:33:55.841Z,6.70
2019-03-03T00:39:17.145Z,6.70
2019-03-03T00:44:35.019Z,6.70
2019-03-03T00:49:48.157Z,6.70
2019-03-03T00:55:28.441Z,6.80
2019-03-03T01:00:47.064Z,6.80
2019-03-03T01:06:03.518Z,6.80
2019-03-03T01:11:14.702Z,6.80
2019-03-03T01:16:35.524Z,6.80
2019-03-03T01:21:51.249Z,6.80
2019-03-03T01:26:56.027Z,6.80
2019-03-03T01:32:00.844Z,6.80
2019-03-03T01:37:05.617Z,6.90
2019-03-03T01:42:10.401Z,6.90
2019-03-03T01:47:16.153Z,6.90
2019-03-03T01:52:21.014Z,6.90
2019-03-03T01:57:25.787Z,6.90
2019-03-03T02:02:30.638Z,6.90
2019-03-03T02:07:35.412Z,7.00
2019-03-03T02:12:40.262Z,7.00
2019-03-03T02:17:45.038Z,7.00
2019-03-03T02:22:50.768Z,7.00
2019-03-03T02:27:55.533Z,6.90
2019-03-03T02:33:00.302Z,6.90
2019-03-03T02:38:05.126Z,7.00
2019-03-03T02:43:09.913Z,7.00
2019-03-03T02:48:14.692Z,7.00
2019-03-03T02:53:20.581Z,7.00
2019-03-03T02:58:25.355Z,7.00
2019-03-03T03:03:30.304Z,7.00
2019-03-03T03:08:54.133Z,7.00
2019-03-03T03:14:20.722Z,7.10
2019-03-03T03:19:33.915Z,7.10
2019-03-03T03:24:54.353Z,7.10
2019-03-03T03:30:18.197Z,7.10
2019-03-03T03:35:44.290Z,7.20
2019-03-03T03:41:04.328Z,7.20
2019-03-03T03:46:40.401Z,7.20
2019-03-03T03:51:55.286Z,7.30
2019-03-03T03:57:23.195Z,7.30
2019-03-03T04:02:43.269Z,7.30
2019-03-03T04:08:07.917Z,7.30
2019-03-03T04:13:26.621Z,7.30
2019-03-03T04:18:37.697Z,7.40
2019-03-03T04:24:00.381Z,7.40
2019-03-03T04:29:27.405Z,7.40
2019-03-03T04:34:42.498Z,7.40
2019-03-03T04:39:56.981Z,7.40
2019-03-03T04:45:13.070Z,7.40
2019-03-03T04:50:23.032Z,7.40
2019-03-03T04:55:42.507Z,7.40
2019-03-03T05:00:57.504Z,7.40
2019-03-03T05:06:26.252Z,7.40
2019-03-03T05:12:43.196Z,7.40
2019-03-03T05:17:52.968Z,7.40
2019-03-03T05:22:57.728Z,7.40
2019-03-03T05:28:02.585Z,7.40
2019-03-03T05:33:07.363Z,7.40
2019-03-03T05:38:12.147Z,7.40
2019-03-03T05:43:16.900Z,7.40
2019-03-03T05:48:21.772Z,7.30
2019-03-03T05:53:26.557Z,7.30
2019-03-03T05:58:31.313Z,7.30
2019-03-03T06:03:36.076Z,7.30
2019-03-03T06:08:40.832Z,7.20
2019-03-03T06:13:45.611Z,7.10
2019-03-03T06:18:51.440Z,7.10
2019-03-03T06:23:56.212Z,7.10
2019-03-03T06:29:01.032Z,7.10
2019-03-03T06:34:06.828Z,7.10
2019-03-03T06:39:11.613Z,7.10
2019-03-03T06:44:16.402Z,7.20
2019-03-03T06:49:21.173Z,7.20
2019-03-03T06:54:25.965Z,7.20
2019-03-03T06:59:30.740Z,7.30
2019-03-03T07:04:35.586Z,7.50
2019-03-03T07:09:40.355Z,7.60
2019-03-03T07:14:45.178Z,7.80
2019-03-03T07:19:49.937Z,7.90
2019-03-03T07:24:54.704Z,7.90
2019-03-03T07:29:59.487Z,7.90
2019-03-03T07:35:04.336Z,7.90
2019-03-03T07:40:09.112Z,7.90
2019-03-03T07:45:13.955Z,8.00
2019-03-03T07:50:18.790Z,8.10
2019-03-03T07:55:23.544Z,8.10
2019-03-03T08:00:28.317Z,8.20
2019-03-03T08:05:33.085Z,8.20
2019-03-03T08:10:38.969Z,8.30
2019-03-03T08:15:43.812Z,8.30
2019-03-03T08:20:48.626Z,8.30
2019-03-03T08:25:54.520Z,8.40
2019-03-03T08:30:59.337Z,8.50
2019-03-03T08:36:04.100Z,8.60
2019-03-03T08:41:08.881Z,8.70
2019-03-03T08:46:28.164Z,8.80
2019-03-03T08:51:38.218Z,8.80
2019-03-03T08:56:50.203Z,9.00
2019-03-03T09:02:08.568Z,9.10
2019-03-03T09:07:38.392Z,9.00
2019-03-03T09:13:02.233Z,9.00
2019-03-03T09:18:32.384Z,8.90
2019-03-03T09:23:55.261Z,9.00
2019-03-03T09:29:15.148Z,9.00
2019-03-03T09:34:34.923Z,9.00
2019-03-03T09:40:14.259Z,9.00
2019-03-03T09:45:36.942Z,9.10
2019-03-03T09:51:03.795Z,9.10
2019-03-03T10:40:26.460Z,23.20
2019-03-03T10:56:34.428Z,13.60
2019-03-03T11:02:08.685Z,12.20
2019-03-03T11:07:29.318Z,11.40
2019-03-03T11:12:51.660Z,11.10
2019-03-03T11:18:14.146Z,10.90
2019-03-03T11:23:32.816Z,10.90
2019-03-03T11:28:58.308Z,11.10
2019-03-03T11:34:22.382Z,11.30
2019-03-03T11:39:40.747Z,11.30
2019-03-03T11:44:54.111Z,11.40
2019-03-03T11:50:17.875Z,11.50
2019-03-03T11:55:31.868Z,11.60
2019-03-03T12:00:55.093Z,11.70
2019-03-03T12:06:30.896Z,11.80
2019-03-03T12:11:55.935Z,11.80
2019-03-03T12:17:21.250Z,11.90
2019-03-03T12:22:58.675Z,11.80
2019-03-03T12:28:20.937Z,11.80
2019-03-03T12:33:41.613Z,11.80
2019-03-03T12:39:02.274Z,11.50
2019-03-03T12:44:28.916Z,11.40
2019-03-03T12:50:12.197Z,11.30
2019-03-03T12:55:23.226Z,11.30
2019-03-03T13:00:48.287Z,11.40
2019-03-03T13:06:03.738Z,11.30
2019-03-03T13:11:35.306Z,11.20
2019-03-03T13:17:09.808Z,11.00
2019-03-03T13:22:37.602Z,11.00
2019-03-03T13:28:01.149Z,10.80
2019-03-03T13:33:33.497Z,10.80
2019-03-03T13:39:01.426Z,10.80
2019-03-03T13:44:09.260Z,10.70
2019-03-03T13:49:16.494Z,10.80
2019-03-03T13:54:22.658Z,10.90
2019-03-03T13:59:28.856Z,10.90
2019-03-03T14:04:35.153Z,10.90
2019-03-03T14:09:41.421Z,10.80
2019-03-03T14:14:48.623Z,10.80
2019-03-03T14:19:54.751Z,10.70
2019-03-03T14:25:00.893Z,10.70
2019-03-03T14:30:09.115Z,10.70
2019-03-03T14:35:15.765Z,10.60
2019-03-03T14:40:22.659Z,10.60
2019-03-03T14:45:28.777Z,10.50
2019-03-03T14:50:34.896Z,10.50
2019-03-03T14:55:41.082Z,10.50
2019-03-03T15:00:47.234Z,10.50
2019-03-03T15:05:53.366Z,10.40
2019-03-03T15:10:59.487Z,10.50
2019-03-03T15:16:05.610Z,10.50
2019-03-03T15:21:11.715Z,10.50
2019-03-03T15:26:17.796Z,10.40
2019-03-03T15:31:23.989Z,10.40
2019-03-03T15:36:30.111Z,10.40
2019-03-03T15:41:36.487Z,10.30
2019-03-03T15:46:42.644Z,10.30
2019-03-03T15:51:48.985Z,10.30
2019-03-03T15:56:55.142Z,10.30
2019-03-03T16:02:02.919Z,10.20
2019-03-03T16:07:09.169Z,10.20
2019-03-03T16:12:16.347Z,10.10
2019-03-03T16:17:22.557Z,10.00
2019-03-03T16:22:29.308Z,10.00
2019-03-03T16:27:35.451Z,9.90
2019-03-03T16:32:41.579Z,9.80
2019-03-03T16:37:47.680Z,9.80
2019-03-03T16:42:53.807Z,9.80
2019-03-03T16:47:59.928Z,9.70
2019-03-03T16:53:06.189Z,9.70
2019-03-03T16:58:12.303Z,9.60
2019-03-03T17:03:18.401Z,9.60
2019-03-03T17:08:24.569Z,9.60
2019-03-03T17:13:30.667Z,9.60
2019-03-03T17:18:36.801Z,9.60
2019-03-03T17:23:42.910Z,9.60
2019-03-03T17:28:49.064Z,9.60
2019-03-03T17:33:55.289Z,9.50
2019-03-03T17:39:01.370Z,9.60
2019-03-03T17:44:09.103Z,9.60
2019-03-03T17:49:15.275Z,9.60
2019-03-03T17:54:21.378Z,9.60
2019-03-03T17:59:27.477Z,9.60
2019-03-03T18:04:33.584Z,9.50
2019-03-03T18:09:39.773Z,9.60
2019-03-03T18:14:45.889Z,9.60
2019-03-03T18:19:51.989Z,9.60
2019-03-03T18:24:58.267Z,9.60
2019-03-03T18:30:04.634Z,9.60
2019-03-03T18:35:12.921Z,9.60
2019-03-03T18:40:19.942Z,9.60
2019-03-03T18:45:26.102Z,9.60
2019-03-03T18:50:32.280Z,9.60
2019-03-03T18:55:39.212Z,9.60
2019-03-03T19:00:45.400Z,9.60
2019-03-03T19:05:55.647Z,9.60
2019-03-03T19:10:59.378Z,9.60
2019-03-03T19:16:05.495Z,9.50
2019-03-03T19:21:11.587Z,9.60
2019-03-03T19:26:19.061Z,9.60
2019-03-03T19:31:25.309Z,9.60
2019-03-03T19:36:31.426Z,9.60
2019-03-03T19:41:37.596Z,9.60
2019-03-03T19:46:43.792Z,9.60
2019-03-03T19:51:49.904Z,9.60
2019-03-03T19:56:55.998Z,9.60
2019-03-03T20:02:02.168Z,9.60
2019-03-03T20:07:08.320Z,9.60
2019-03-03T20:12:14.428Z,9.60
2019-03-03T20:17:20.514Z,9.50
2019-03-03T20:22:26.598Z,9.50
2019-03-03T20:27:32.672Z,9.50
2019-03-03T20:32:38.820Z,9.50
2019-03-03T20:37:44.910Z,9.50
2019-03-03T20:42:51.045Z,9.40
2019-03-03T20:47:57.246Z,9.40
2019-03-03T20:53:03.370Z,9.40
2019-03-03T20:58:12.269Z,9.40
2019-03-03T21:03:18.382Z,9.50
2019-03-03T21:08:24.538Z,9.50
2019-03-03T21:13:30.609Z,9.50
2019-03-03T21:18:37.713Z,9.40
2019-03-03T21:23:43.788Z,9.40
2019-03-03T21:28:49.885Z,9.40
2019-03-03T21:33:56.990Z,9.30
2019-03-03T21:39:03.256Z,9.30
2019-03-03T21:44:11.003Z,9.30
2019-03-03T21:49:17.138Z,9.30
2019-03-03T21:54:24.346Z,9.30
2019-03-03T21:59:30.437Z,9.30
2019-03-03T22:04:36.558Z,9.30
2019-03-03T22:09:42.828Z,9.30
2019-03-03T22:14:48.914Z,9.30
2019-03-03T22:19:55.091Z,9.30
2019-03-03T22:25:01.187Z,9.20
2019-03-03T22:30:15.913Z,9.10
2019-03-03T22:35:22.113Z,9.00
2019-03-03T22:40:28.224Z,9.00
2019-03-03T22:45:34.333Z,8.90
2019-03-03T22:50:40.405Z,9.00
2019-03-03T22:55:46.501Z,8.90
2019-03-03T23:01:10.508Z,8.90
2019-03-03T23:06:53.443Z,8.90
2019-03-03T23:12:59.383Z,8.90
2019-03-03T23:18:46.949Z,8.80
2019-03-03T23:24:34.490Z,8.90
2019-03-03T23:29:40.581Z,8.90
2019-03-03T23:34:46.784Z,8.90
2019-03-03T23:39:52.953Z,8.90
2019-03-03T23:44:59.114Z,8.90
2019-03-03T23:50:05.584Z,8.90
2019-03-03T23:55:12.599Z,8.80
